Time;durP1;ratioP1;P1;durP2;ratioP2;P2;SDS_P1;SDS_P2;PMS_P1;PMS_P2;Temp;Humidity;BMP_temperature;BMP_pressure;BME280_temperature;BME280_humidity;BME280_pressure;Samples;Min_cycle;Max_cycle;Signal;HPM_P1;HPM_P2
2023/05/16 00:01:28;;;;;;;9.68;5.60;;;;;;;19.62;52.69;100545.84;5019819;27;98731;-73
2023/05/16 00:03:55;;;;;;;12.93;6.35;;;;;;;19.63;52.82;100535.94;5025073;27;97169;-74
2023/05/16 00:06:21;;;;;;;6.55;5.18;;;;;;;19.59;53.17;100539.84;5022259;27;96992;-73
2023/05/16 00:08:48;;;;;;;9.23;5.97;;;;;;;19.38;53.27;100540.47;5018247;27;102766;-74
2023/05/16 00:11:14;;;;;;;10.30;6.15;;;;;;;19.55;53.20;100536.56;5023218;27;102200;-73
2023/05/16 00:13:42;;;;;;;10.85;6.00;;;;;;;19.61;52.83;100540.59;5015327;27;97061;-73
2023/05/16 00:16:08;;;;;;;14.73;6.93;;;;;;;19.33;53.56;100556.03;5023017;27;98523;-73
2023/05/16 00:18:36;;;;;;;9.07;6.03;;;;;;;19.49;53.20;100548.56;5022272;27;98942;-73
2023/05/16 00:21:03;;;;;;;10.82;6.35;;;;;;;19.48;53.15;100557.59;5021122;27;98852;-73
2023/05/16 00:23:30;;;;;;;9.20;6.15;;;;;;;19.45;53.56;100555.13;5023223;27;100197;-74
2023/05/16 00:25:56;;;;;;;7.82;6.28;;;;;;;19.35;53.59;100555.94;5022057;27;96929;-73
2023/05/16 00:28:23;;;;;;;7.55;6.40;;;;;;;19.53;52.94;100554.56;5023113;27;99699;-75
2023/05/16 00:30:50;;;;;;;8.50;7.07;;;;;;;19.58;53.20;100552.41;5016765;27;99857;-74
2023/05/16 00:33:17;;;;;;;9.93;6.55;;;;;;;19.55;53.15;100551.78;5024187;27;97151;-74
2023/05/16 00:35:43;;;;;;;13.60;6.70;;;;;;;19.65;53.05;100552.78;5015488;27;96820;-74
2023/05/16 00:38:09;;;;;;;11.07;6.85;;;;;;;19.49;53.25;100553.94;5019851;27;100963;-75
2023/05/16 00:40:36;;;;;;;11.57;7.22;;;;;;;19.44;53.59;100556.06;5018953;27;101877;-76
2023/05/16 00:43:02;;;;;;;15.60;7.13;;;;;;;19.50;53.28;100555.66;5024860;27;98633;-74
2023/05/16 00:45:29;;;;;;;9.48;6.95;;;;;;;19.45;53.82;100560.47;5023836;27;97016;-73
2023/05/16 00:47:56;;;;;;;10.57;7.18;;;;;;;19.23;54.05;100562.22;5019364;27;98848;-74
2023/05/16 00:50:23;;;;;;;9.90;7.35;;;;;;;19.45;53.67;100560.47;5018579;27;99492;-73
2023/05/16 00:52:50;;;;;;;8.77;6.47;;;;;;;19.58;53.47;100564.94;5022929;27;98477;-74
2023/05/16 00:55:16;;;;;;;10.35;7.15;;;;;;;19.36;54.08;100571.88;5024175;27;96999;-73
2023/05/16 00:57:43;;;;;;;12.48;8.55;;;;;;;19.04;55.27;100565.38;5017244;27;99117;-74
2023/05/16 01:00:10;;;;;;;13.05;8.07;;;;;;;18.85;55.92;100575.69;5016101;27;99435;-74
2023/05/16 01:02:38;;;;;;;13.77;8.30;;;;;;;19.00;55.70;100575.47;5024053;27;96901;-74
2023/05/16 01:05:06;;;;;;;14.68;8.50;;;;;;;18.94;55.99;100575.91;5023971;27;96793;-74
2023/05/16 01:07:33;;;;;;;11.80;9.07;;;;;;;18.91;56.44;100583.28;5028316;27;99079;-75
2023/05/16 01:10:00;;;;;;;14.00;9.32;;;;;;;19.02;56.03;100586.91;5022893;27;99009;-73
2023/05/16 01:12:36;;;;;;;13.27;9.90;;;;;;;18.96;56.12;100592.72;5019101;27;96838;-73
2023/05/16 01:15:05;;;;;;;;;;;;;;;18.86;56.92;100583.63;5027201;27;96879;-74
2023/05/16 01:17:43;;;;;;;14.73;9.95;;;;;;;18.79;56.82;100589.53;5024396;27;98158;-75
2023/05/16 01:20:26;;;;;;;15.50;10.85;;;;;;;18.93;56.38;100594.75;5021863;27;98829;-74
2023/05/16 01:23:05;;;;;;;15.75;10.70;;;;;;;18.60;57.64;100598.88;5020173;27;97088;-75
2023/05/16 01:25:45;;;;;;;17.73;11.65;;;;;;;18.36;58.03;100608.63;5026587;27;97550;-74
2023/05/16 01:28:15;;;;;;;18.08;11.20;;;;;;;18.41;57.81;100605.59;5022161;27;99348;-74
2023/05/16 01:30:42;;;;;;;20.40;11.63;;;;;;;18.33;57.95;100609.66;5018285;27;99327;-74
2023/05/16 01:33:08;;;;;;;38.45;12.15;;;;;;;18.28;57.72;100613.63;5027375;27;97888;-73
2023/05/16 01:35:39;;;;;;;15.32;11.20;;;;;;;18.54;56.76;100612.66;5028067;27;96842;-74
2023/05/16 01:38:15;;;;;;;15.73;11.00;;;;;;;18.21;57.49;100615.88;5026568;27;99617;-74
2023/05/16 01:40:48;;;;;;;14.43;10.68;;;;;;;18.49;56.86;100622.84;5025609;27;98803;-74
2023/05/16 01:43:24;;;;;;;17.58;10.95;;;;;;;18.14;57.09;100624.44;5027610;27;98626;-74
2023/05/16 01:45:57;;;;;;;12.90;10.73;;;;;;;18.12;57.14;100627.19;5024807;27;96944;-73
2023/05/16 01:48:30;;;;;;;17.05;11.63;;;;;;;17.90;57.49;100621.63;5024511;27;98838;-74
2023/05/16 01:51:00;;;;;;;15.93;10.45;;;;;;;17.79;57.82;100637.50;5027456;27;98022;-74
2023/05/16 01:53:30;;;;;;;16.42;10.98;;;;;;;17.66;58.26;100634.78;5026046;27;97117;-74
2023/05/16 01:55:59;;;;;;;14.00;10.82;;;;;;;17.95;57.06;100640.00;5022726;27;96816;-73
2023/05/16 01:58:30;;;;;;;17.17;11.70;;;;;;;17.72;57.48;100641.56;5025379;27;99417;-74
2023/05/16 02:01:01;;;;;;;25.45;10.95;;;;;;;17.80;57.13;100645.41;5018878;27;98861;-74
2023/05/16 02:03:27;;;;;;;14.57;10.80;;;;;;;17.70;57.11;100657.69;5027589;27;96807;-74
2023/05/16 02:05:53;;;;;;;21.05;10.43;;;;;;;17.71;56.97;100661.22;5021157;27;96930;-74
2023/05/16 02:08:20;;;;;;;18.13;11.10;;;;;;;17.30;58.03;100675.44;5025512;27;98931;-73
2023/05/16 02:10:47;;;;;;;12.60;10.50;;;;;;;17.36;57.65;100675.03;5019448;27;98797;-74
2023/05/16 02:13:13;;;;;;;15.73;10.55;;;;;;;17.13;58.31;100668.50;5026318;27;96814;-74
2023/05/16 02:15:41;;;;;;;21.60;11.57;;;;;;;17.38;57.44;100677.63;5024081;27;97253;-73
2023/05/16 02:18:08;;;;;;;14.93;10.68;;;;;;;17.31;57.24;100671.81;5024695;27;101132;-73
2023/05/16 02:20:35;;;;;;;18.10;10.88;;;;;;;17.23;57.45;100673.25;5027320;27;98708;-73
2023/05/16 02:23:02;;;;;;;15.70;10.98;;;;;;;16.87;58.27;100669.28;5024663;27;99128;-73
2023/05/16 02:25:29;;;;;;;18.63;11.30;;;;;;;16.91;58.00;100677.97;5030076;27;97176;-74
2023/05/16 02:27:56;;;;;;;14.95;10.75;;;;;;;17.13;56.92;100678.34;5028805;27;99009;-74
2023/05/16 02:30:22;;;;;;;19.55;9.90;;;;;;;16.85;57.01;100684.56;5026870;27;99276;-74
2023/05/16 02:32:50;;;;;;;15.40;11.05;;;;;;;17.25;56.16;100690.03;5022699;27;98010;-74
2023/05/16 02:35:17;;;;;;;20.17;11.32;;;;;;;17.35;55.71;100688.47;5022722;27;99873;-73
2023/05/16 02:37:44;;;;;;;16.33;10.60;;;;;;;17.53;55.17;100700.66;5026482;27;99027;-74
2023/05/16 02:40:11;;;;;;;14.77;10.35;;;;;;;17.34;55.51;100698.31;5017825;27;99279;-73
2023/05/16 02:42:38;;;;;;;21.67;10.88;;;;;;;17.34;55.52;100709.00;5026210;27;96852;-73
2023/05/16 02:45:05;;;;;;;16.48;10.68;;;;;;;16.92;57.08;100717.06;5025204;27;97061;-74
2023/05/16 02:47:31;;;;;;;14.65;10.93;;;;;;;16.72;57.77;100715.63;5019176;27;97868;-73
2023/05/16 02:49:59;;;;;;;14.77;10.82;;;;;;;16.67;58.13;100717.72;5024278;27;98928;-73
2023/05/16 02:52:25;;;;;;;18.40;11.10;;;;;;;16.97;57.13;100713.16;5019277;27;96985;-73
2023/05/16 02:54:52;;;;;;;14.90;10.27;;;;;;;17.14;56.46;100712.06;5027935;27;96916;-74
2023/05/16 02:57:18;;;;;;;22.35;11.07;;;;;;;17.21;56.19;100710.72;5026293;27;100298;-72
2023/05/16 02:59:44;;;;;;;17.67;11.07;;;;;;;17.06;56.63;100720.59;5022791;27;97949;-74
2023/05/16 03:02:11;;;;;;;18.65;11.23;;;;;;;16.95;56.67;100724.84;5023880;27;96773;-73
2023/05/16 03:04:37;;;;;;;17.17;11.50;;;;;;;16.96;56.73;100724.75;5024761;27;96738;-74
2023/05/16 03:07:05;;;;;;;21.40;11.63;;;;;;;17.06;56.55;100725.94;5018297;27;99437;-73
2023/05/16 03:09:31;;;;;;;14.75;11.05;;;;;;;17.05;56.47;100734.03;5023003;27;102995;-75
2023/05/16 03:11:58;;;;;;;16.92;11.35;;;;;;;17.06;56.39;100747.28;5029718;27;101094;-74
2023/05/16 03:14:24;;;;;;;15.52;10.73;;;;;;;16.70;57.44;100747.72;5027915;27;96912;-73
2023/05/16 03:16:51;;;;;;;22.50;12.48;;;;;;;16.62;57.90;100746.47;5019555;27;99020;-73
2023/05/16 03:19:17;;;;;;;21.35;11.10;;;;;;;16.63;57.92;100745.50;5023099;27;98871;-73
2023/05/16 03:21:43;;;;;;;16.95;12.15;;;;;;;16.70;57.72;100754.88;5016474;27;96793;-72
2023/05/16 03:24:11;;;;;;;16.45;12.10;;;;;;;16.93;56.94;100757.00;5028560;27;97237;-72
2023/05/16 03:26:37;;;;;;;20.25;11.68;;;;;;;17.09;56.38;100760.44;5018210;27;99057;-73
2023/05/16 03:29:04;;;;;;;15.30;11.88;;;;;;;17.07;56.39;100765.00;5025911;27;98916;-73
2023/05/16 03:31:31;;;;;;;17.42;11.98;;;;;;;17.01;56.36;100768.03;5022131;27;96692;-73
2023/05/16 03:33:58;;;;;;;18.83;12.18;;;;;;;16.68;57.70;100778.09;5025546;27;97233;-73
2023/05/16 03:36:25;;;;;;;22.40;13.07;;;;;;;16.42;58.65;100771.63;5029407;27;98987;-73
2023/05/16 03:38:51;;;;;;;20.80;13.20;;;;;;;16.24;59.16;100770.03;5024468;27;98951;-72
2023/05/16 03:41:19;;;;;;;20.77;12.77;;;;;;;16.53;58.21;100773.66;5021032;27;98979;-73
2023/05/16 03:43:46;;;;;;;18.67;13.18;;;;;;;16.39;58.55;100774.50;5027000;27;97058;-73
2023/05/16 03:46:12;;;;;;;23.48;12.65;;;;;;;16.81;57.34;100772.88;5020031;27;99192;-73
2023/05/16 03:48:38;;;;;;;21.52;13.38;;;;;;;16.85;56.93;100772.63;5018986;27;100198;-73
2023/05/16 03:51:05;;;;;;;22.52;13.77;;;;;;;16.48;57.95;100775.72;5024645;27;97529;-74
2023/05/16 03:53:32;;;;;;;22.45;13.30;;;;;;;16.43;58.17;100776.00;5019330;27;97050;-74
2023/05/16 03:55:59;;;;;;;18.33;13.52;;;;;;;16.71;57.34;100783.25;5025991;27;100368;-73
2023/05/16 03:58:27;;;;;;;18.88;13.20;;;;;;;16.56;57.72;100790.34;5029656;27;99334;-74
2023/05/16 04:00:53;;;;;;;17.85;13.25;;;;;;;16.44;58.22;100779.53;5018753;27;97187;-74
2023/05/16 04:03:19;;;;;;;18.50;13.27;;;;;;;16.78;57.23;100781.94;5020880;27;98935;-74
2023/05/16 04:05:46;;;;;;;23.58;13.57;;;;;;;16.67;57.39;100787.09;5019077;27;98939;-73
2023/05/16 04:08:12;;;;;;;18.00;13.00;;;;;;;16.48;57.80;100786.41;5020506;27;98981;-73
2023/05/16 04:10:39;;;;;;;20.10;13.20;;;;;;;16.44;57.89;100784.88;5015295;27;101005;-73
2023/05/16 04:13:05;;;;;;;21.77;13.73;;;;;;;16.24;58.74;100794.91;5020298;27;97230;-73
2023/05/16 04:15:33;;;;;;;20.50;12.52;;;;;;;16.47;58.34;100795.38;5019048;27;99483;-73
2023/05/16 04:18:00;;;;;;;22.17;14.07;;;;;;;16.48;57.96;100797.06;5023374;27;101564;-74
2023/05/16 04:20:26;;;;;;;21.45;13.55;;;;;;;16.60;57.37;100802.59;5021978;27;96824;-73
2023/05/16 04:22:53;;;;;;;19.75;13.70;;;;;;;16.43;57.95;100813.34;5016607;27;97228;-72
2023/05/16 04:25:19;;;;;;;22.92;13.63;;;;;;;16.19;58.73;100817.44;5022795;27;101858;-72
2023/05/16 04:27:45;;;;;;;20.42;13.65;;;;;;;16.31;58.29;100814.94;5027840;27;99098;-73
2023/05/16 04:30:13;;;;;;;19.92;14.50;;;;;;;16.29;58.52;100826.63;5024402;27;97426;-73
2023/05/16 04:32:41;;;;;;;21.52;13.68;;;;;;;16.38;57.81;100833.25;5021917;27;97442;-73
2023/05/16 04:35:08;;;;;;;22.85;13.82;;;;;;;16.03;59.31;100824.59;5026067;27;99578;-72
2023/05/16 04:37:35;;;;;;;23.52;15.63;;;;;;;15.93;59.47;100827.78;5029052;27;97559;-74
2023/05/16 04:40:02;;;;;;;28.65;15.73;;;;;;;16.03;59.08;100829.91;5025994;27;96940;-73
2023/05/16 04:42:28;;;;;;;22.55;15.35;;;;;;;16.24;58.41;100839.38;5024709;27;97986;-74
2023/05/16 04:44:55;;;;;;;22.27;14.85;;;;;;;16.25;58.09;100841.09;5029066;27;97623;-74
2023/05/16 04:47:22;;;;;;;24.88;14.48;;;;;;;16.28;58.17;100846.22;5022810;27;99759;-73
2023/05/16 04:49:50;;;;;;;27.23;14.10;;;;;;;16.70;56.77;100846.44;5019831;27;96949;-73
2023/05/16 04:52:16;;;;;;;27.48;14.88;;;;;;;16.19;58.00;100852.97;5026215;27;96765;-74
2023/05/16 04:54:43;;;;;;;24.75;15.00;;;;;;;16.40;57.51;100853.56;5021630;27;99591;-73
2023/05/16 04:57:09;;;;;;;22.55;14.90;;;;;;;16.79;56.24;100853.06;5027818;27;99619;-73
2023/05/16 04:59:37;;;;;;;21.83;14.45;;;;;;;16.87;55.63;100861.44;5022505;27;98909;-72
2023/05/16 05:02:04;;;;;;;25.05;14.02;;;;;;;16.38;56.68;100857.25;5028333;27;96867;-73
2023/05/16 05:04:31;;;;;;;23.55;14.82;;;;;;;16.42;57.03;100869.44;5021280;27;99471;-73
2023/05/16 05:06:58;;;;;;;27.38;16.00;;;;;;;16.18;57.72;100877.91;5023333;27;96901;-74
2023/05/16 05:09:25;;;;;;;24.10;15.10;;;;;;;15.85;59.08;100882.44;5028068;28;96656;-74
2023/05/16 05:11:52;;;;;;;20.08;13.43;;;;;;;16.20;57.59;100878.69;5020955;27;96982;-74
2023/05/16 05:14:18;;;;;;;19.60;14.55;;;;;;;15.83;58.45;100885.19;5027642;27;99573;-74
2023/05/16 05:16:45;;;;;;;22.83;14.40;;;;;;;16.18;57.57;100895.69;5026606;27;98868;-74
2023/05/16 05:19:11;;;;;;;22.13;13.43;;;;;;;16.12;57.58;100896.91;5022008;27;97306;-74
2023/05/16 05:21:37;;;;;;;19.42;13.40;;;;;;;15.95;57.88;100896.97;5021485;27;99171;-73
2023/05/16 05:24:06;;;;;;;20.25;13.32;;;;;;;16.15;57.17;100894.06;5028902;27;99473;-74
2023/05/16 05:26:32;;;;;;;21.92;13.98;;;;;;;16.39;56.68;100906.97;5022032;27;99364;-73
2023/05/16 05:28:59;;;;;;;22.15;13.63;;;;;;;16.45;56.33;100909.28;5022968;27;96874;-73
2023/05/16 05:31:25;;;;;;;20.85;13.55;;;;;;;16.33;56.76;100911.72;5021314;27;99223;-74
2023/05/16 05:33:52;;;;;;;27.45;14.25;;;;;;;16.43;56.27;100911.16;5019238;27;100726;-73
2023/05/16 05:36:18;;;;;;;26.00;13.77;;;;;;;16.59;55.73;100912.03;5021286;27;99268;-74
2023/05/16 05:38:45;;;;;;;25.00;13.57;;;;;;;16.55;55.84;100910.47;5024050;27;97653;-74
2023/05/16 05:41:13;;;;;;;21.75;13.50;;;;;;;16.81;55.03;100912.50;5021536;27;97314;-75
2023/05/16 05:43:40;;;;;;;23.25;13.57;;;;;;;16.98;54.27;100923.06;5028834;27;99367;-75
2023/05/16 05:46:07;;;;;;;30.75;13.23;;;;;;;17.07;54.01;100924.31;5028728;27;99249;-75
2023/05/16 05:48:33;;;;;;;15.40;12.45;;;;;;;17.06;53.81;100938.63;5024514;27;96833;-75
2023/05/16 05:51:00;;;;;;;20.77;11.63;;;;;;;16.51;54.82;100943.59;5022661;27;97422;-74
2023/05/16 05:53:27;;;;;;;19.05;11.02;;;;;;;16.54;54.55;100940.78;5023078;27;99020;-73
2023/05/16 05:55:55;;;;;;;18.77;9.95;;;;;;;16.43;54.21;100938.69;5030748;27;99032;-75
2023/05/16 05:58:23;;;;;;;19.27;9.40;;;;;;;16.50;53.81;100942.75;5021278;27;97286;-73
2023/05/16 06:00:49;;;;;;;14.95;9.00;;;;;;;16.89;52.99;100952.97;5027778;27;97012;-73
2023/05/16 06:03:15;;;;;;;13.88;9.30;;;;;;;17.22;51.74;100957.25;5022284;27;99411;-74
2023/05/16 06:05:42;;;;;;;16.50;9.57;;;;;;;17.11;51.74;100953.44;5019743;27;98861;-74
2023/05/16 06:08:08;;;;;;;13.43;7.82;;;;;;;17.39;51.17;100957.97;5021668;27;97540;-74
2023/05/16 06:10:35;;;;;;;19.38;8.55;;;;;;;17.38;50.83;100956.25;5028591;27;97503;-73
2023/05/16 06:13:01;;;;;;;16.95;8.63;;;;;;;17.17;51.17;100970.03;5027823;27;100441;-73
2023/05/16 06:15:29;;;;;;;12.52;8.90;;;;;;;16.87;51.67;100962.84;5014193;27;102594;-73
2023/05/16 06:17:55;;;;;;;11.68;8.60;;;;;;;16.66;52.29;100961.44;5025247;27;97355;-73
2023/05/16 06:20:21;;;;;;;11.73;8.60;;;;;;;16.52;52.82;100961.34;5032778;27;98604;-73
2023/05/16 06:22:48;;;;;;;17.20;9.02;;;;;;;17.03;51.77;100955.69;5017311;27;98412;-73
2023/05/16 06:25:14;;;;;;;12.40;7.38;;;;;;;16.93;51.81;100967.88;5022774;27;99060;-73
2023/05/16 06:27:41;;;;;;;14.73;7.82;;;;;;;17.16;51.37;100961.16;5018342;27;96910;-74
2023/05/16 06:30:08;;;;;;;11.73;8.20;;;;;;;16.93;51.41;100962.53;5026539;27;97722;-74
2023/05/16 06:32:36;;;;;;;11.10;7.57;;;;;;;16.76;51.91;100962.63;5032661;27;99399;-74
2023/05/16 06:35:03;;;;;;;15.40;7.97;;;;;;;17.05;51.26;100959.13;5030939;27;98987;-73
2023/05/16 06:37:29;;;;;;;21.17;7.50;;;;;;;16.93;51.44;100967.88;5030329;27;97220;-74
2023/05/16 06:39:55;;;;;;;11.70;6.82;;;;;;;16.75;51.88;100971.56;5024177;27;97742;-74
2023/05/16 06:42:22;;;;;;;14.63;7.15;;;;;;;16.84;51.83;100978.19;5024885;27;99630;-75
2023/05/16 06:44:48;;;;;;;11.13;6.72;;;;;;;16.76;51.76;100978.63;5026172;27;99260;-76
2023/05/16 06:47:15;;;;;;;16.75;6.22;;;;;;;16.40;52.62;100978.03;5031282;27;97485;-74
2023/05/16 06:49:46;;;;;;;9.68;6.63;;;;;;;16.71;52.20;100986.91;5021566;27;97703;-74
2023/05/16 06:52:12;;;;;;;10.55;5.95;;;;;;;16.72;51.94;100996.66;5029267;27;99155;-76
2023/05/16 06:54:39;;;;;;;12.68;5.97;;;;;;;16.63;52.19;101004.28;5024864;27;99192;-75
2023/05/16 06:57:07;;;;;;;12.65;6.55;;;;;;;16.74;51.88;101001.88;5028130;27;97492;-74
2023/05/16 06:59:33;;;;;;;14.65;6.63;;;;;;;17.11;50.88;101006.81;5025179;27;96928;-74
2023/05/16 07:02:00;;;;;;;10.60;6.28;;;;;;;17.18;50.78;101003.78;5023074;27;99320;-75
2023/05/16 07:04:27;;;;;;;7.18;5.25;;;;;;;17.36;50.27;101011.59;5027135;27;100239;-74
2023/05/16 07:06:55;;;;;;;12.90;5.80;;;;;;;17.48;49.79;101009.97;5024662;27;96795;-75
2023/05/16 07:09:21;;;;;;;9.57;6.00;;;;;;;17.43;49.68;101023.63;5028346;27;96746;-74
2023/05/16 07:11:48;;;;;;;7.43;5.97;;;;;;;17.32;49.85;101019.88;5026326;27;97801;-74
2023/05/16 07:14:14;;;;;;;5.82;4.50;;;;;;;17.70;49.13;101017.59;5023406;27;97981;-74
2023/05/16 07:16:41;;;;;;;11.10;5.38;;;;;;;18.02;48.61;101021.84;5026853;27;97322;-74
2023/05/16 07:19:08;;;;;;;9.15;4.82;;;;;;;17.68;49.04;101017.69;5028756;27;96895;-74
2023/05/16 07:21:34;;;;;;;11.43;5.32;;;;;;;18.05;48.18;101021.63;5031336;27;98950;-73
2023/05/16 07:24:02;;;;;;;9.30;4.60;;;;;;;18.12;47.82;101031.00;5028366;27;101968;-75
2023/05/16 07:26:28;;;;;;;10.90;4.60;;;;;;;17.98;48.07;101027.47;5031734;27;96998;-74
2023/05/16 07:28:58;;;;;;;9.68;4.30;;;;;;;18.05;47.73;101034.16;5031390;27;96799;-74
2023/05/16 07:31:24;;;;;;;11.48;4.47;;;;;;;18.30;46.98;101029.00;5027132;27;99166;-74
2023/05/16 07:33:51;;;;;;;7.65;3.60;;;;;;;18.33;46.65;101032.31;5018151;27;99204;-75
2023/05/16 07:36:17;;;;;;;8.20;4.50;;;;;;;18.05;47.04;101040.34;5026275;27;99514;-75
2023/05/16 07:38:44;;;;;;;15.23;5.70;;;;;;;18.09;47.38;101027.66;5021784;27;96890;-74
2023/05/16 07:41:12;;;;;;;8.15;4.18;;;;;;;18.11;47.38;101037.31;5027811;27;98925;-74
2023/05/16 07:43:38;;;;;;;8.02;4.00;;;;;;;18.22;46.85;101031.28;5018993;27;98880;-74
2023/05/16 07:46:05;;;;;;;6.22;4.18;;;;;;;18.29;46.48;101030.81;5027956;27;97419;-74
2023/05/16 07:48:32;;;;;;;5.45;3.63;;;;;;;18.02;46.95;101031.66;5019532;27;98582;-74
2023/05/16 07:50:58;;;;;;;8.10;4.00;;;;;;;17.91;47.40;101035.88;5024341;27;99128;-75
2023/05/16 07:53:25;;;;;;;6.53;4.15;;;;;;;17.81;47.63;101037.38;5022981;27;98964;-74
2023/05/16 07:55:51;;;;;;;5.47;3.33;;;;;;;17.75;47.66;101052.94;5025220;27;96863;-74
2023/05/16 07:58:19;;;;;;;8.27;3.35;;;;;;;18.31;46.17;101050.28;5024733;27;96668;-74
2023/05/16 08:00:46;;;;;;;9.65;4.22;;;;;;;17.91;47.06;101056.41;5025315;27;99147;-74
2023/05/16 08:03:12;;;;;;;3.13;2.58;;;;;;;17.53;48.18;101051.50;5015973;27;98807;-75
2023/05/16 08:05:39;;;;;;;6.32;2.70;;;;;;;17.74;47.57;101057.41;5021909;27;96868;-74
2023/05/16 08:08:05;;;;;;;8.60;2.83;;;;;;;17.85;47.23;101056.78;5018463;27;96786;-75
2023/05/16 08:10:32;;;;;;;7.05;3.03;;;;;;;18.03;46.87;101054.78;5025226;27;99182;-76
2023/05/16 08:12:58;;;;;;;7.70;2.75;;;;;;;18.03;46.85;101071.69;5020928;27;98836;-75
2023/05/16 08:15:26;;;;;;;11.10;3.00;;;;;;;18.16;46.66;101077.16;5021417;27;97235;-75
2023/05/16 08:17:55;;;;;;;9.43;3.10;;;;;;;17.87;47.04;101085.13;5022357;27;96934;-76
2023/05/16 08:20:21;;;;;;;9.63;2.70;;;;;;;17.92;46.85;101088.38;5018666;27;98197;-75
2023/05/16 08:22:48;;;;;;;5.28;2.85;;;;;;;17.72;47.08;101083.34;5017670;27;97486;-75
2023/05/16 08:25:14;;;;;;;8.07;2.85;;;;;;;17.75;47.39;101093.00;5020922;27;97384;-75
2023/05/16 08:27:41;;;;;;;5.40;3.10;;;;;;;17.99;46.79;101082.66;5023592;27;96922;-75
2023/05/16 08:30:10;;;;;;;5.78;2.55;;;;;;;18.22;46.26;101093.69;5020728;27;99036;-74
2023/05/16 08:32:38;;;;;;;6.60;2.72;;;;;;;17.80;47.14;101094.47;5019384;27;98846;-76
2023/05/16 08:35:06;;;;;;;8.93;2.40;;;;;;;17.90;46.88;101102.78;5022384;27;97496;-75
2023/05/16 08:37:33;;;;;;;5.30;2.40;;;;;;;17.45;47.73;101101.88;5022078;27;97235;-75
2023/05/16 08:40:00;;;;;;;4.68;2.28;;;;;;;17.63;47.89;101107.97;5025198;27;99339;-74
2023/05/16 08:42:27;;;;;;;4.78;1.90;;;;;;;17.59;47.74;101098.38;5020739;27;98274;-74
2023/05/16 08:44:53;;;;;;;5.75;2.38;;;;;;;17.79;47.04;101102.56;5020450;27;96694;-75
2023/05/16 08:47:24;;;;;;;4.13;1.75;;;;;;;17.79;46.89;101094.53;5022353;27;97652;-74
2023/05/16 08:49:57;;;;;;;3.67;1.83;;;;;;;17.72;46.84;101094.03;5016945;27;99835;-74
2023/05/16 08:52:28;;;;;;;4.82;1.73;;;;;;;18.02;46.21;101096.72;5021387;27;98198;-75
2023/05/16 08:54:57;;;;;;;7.68;1.65;;;;;;;17.84;46.66;101088.00;5019768;27;97229;-74
2023/05/16 08:57:27;;;;;;;4.03;1.60;;;;;;;18.14;45.91;101089.75;5019027;27;99905;-74
2023/05/16 08:59:55;;;;;;;5.97;1.65;;;;;;;18.64;44.73;101090.13;5018924;27;98002;-74
2023/05/16 09:02:22;;;;;;;5.65;2.30;;;;;;;18.84;44.23;101088.03;5017044;27;98971;-74
2023/05/16 09:04:49;;;;;;;8.85;2.15;;;;;;;18.83;44.02;101081.81;5016362;27;97646;-74
2023/05/16 09:07:17;;;;;;;6.13;1.73;;;;;;;18.61;44.37;101085.00;5012625;27;96958;-75
2023/05/16 09:09:43;;;;;;;5.55;1.58;;;;;;;18.99;43.30;101077.16;5014691;27;98229;-75
2023/05/16 09:12:10;;;;;;;7.40;1.73;;;;;;;19.00;43.34;101083.38;5016347;27;100661;-75
2023/05/16 09:14:37;;;;;;;3.83;1.40;;;;;;;18.75;43.93;101078.78;5019098;27;97344;-75
2023/05/16 09:17:05;;;;;;;7.07;1.33;;;;;;;18.64;43.92;101090.13;5018665;27;97248;-75
2023/05/16 09:19:41;;;;;;;7.93;1.48;;;;;;;18.26;45.25;101095.19;5017181;27;101963;-74
2023/05/16 09:22:09;;;;;;;5.70;1.65;;;;;;;18.36;45.25;101100.84;5022304;27;98025;-74
2023/05/16 09:24:39;;;;;;;6.72;1.45;;;;;;;17.98;45.82;101111.22;5018517;27;96757;-73
2023/05/16 09:27:09;;;;;;;4.22;1.48;;;;;;;18.03;45.45;101098.44;5023834;27;97255;-74
2023/05/16 09:29:36;;;;;;;7.60;1.40;;;;;;;18.23;45.54;101113.25;5018582;27;99259;-74
2023/05/16 09:32:09;;;;;;;5.22;1.45;;;;;;;18.40;45.03;101104.19;5026463;27;99899;-74
2023/05/16 09:34:38;;;;;;;4.35;1.50;;;;;;;18.91;43.93;101108.06;5026650;27;97325;-74
2023/05/16 09:37:05;;;;;;;8.15;1.27;;;;;;;19.40;42.32;101109.28;5015604;27;97534;-75
2023/05/16 09:39:31;;;;;;;5.43;1.27;;;;;;;19.36;41.59;101107.75;5033482;27;96813;-74
2023/05/16 09:41:59;;;;;;;4.32;1.27;;;;;;;19.52;41.25;101115.66;5023747;27;99053;-74
2023/05/16 09:44:26;;;;;;;6.28;1.42;;;;;;;19.54;41.20;101118.25;5021146;27;97474;-74
2023/05/16 09:46:54;;;;;;;4.00;1.48;;;;;;;19.21;41.77;101127.53;5014366;27;97705;-74
2023/05/16 09:49:21;;;;;;;4.78;1.80;;;;;;;19.17;41.84;101128.66;5023077;27;98974;-74
2023/05/16 09:51:47;;;;;;;7.65;1.30;;;;;;;19.17;41.61;101131.34;5017242;27;101101;-73
2023/05/16 09:54:14;;;;;;;4.05;1.60;;;;;;;18.99;41.90;101125.38;5022385;27;97364;-74
2023/05/16 09:56:49;;;;;;;5.93;1.45;;;;;;;19.06;42.12;101145.44;5022068;27;96917;-74
2023/05/16 09:59:17;;;;;;;4.50;1.25;;;;;;;19.01;42.17;101144.91;5020876;27;98178;-74
2023/05/16 10:01:43;;;;;;;8.35;1.60;;;;;;;18.84;42.76;101153.13;5025531;27;98728;-74
2023/05/16 10:04:12;;;;;;;10.55;1.70;;;;;;;18.85;42.63;101146.81;5021101;27;97201;-74
2023/05/16 10:06:41;;;;;;;10.10;1.65;;;;;;;18.98;42.59;101146.88;5017533;27;97707;-73
2023/05/16 10:09:08;;;;;;;6.53;1.80;;;;;;;18.70;43.24;101156.69;5022255;27;101748;-74
2023/05/16 10:11:35;;;;;;;10.90;2.20;;;;;;;18.87;42.99;101152.94;5021179;27;101004;-74
2023/05/16 10:14:02;;;;;;;5.53;1.33;;;;;;;18.37;44.09;101148.06;5026710;27;96784;-74
2023/05/16 10:16:31;;;;;;;5.95;1.70;;;;;;;18.74;43.60;101143.97;5019961;27;97986;-74
2023/05/16 10:18:57;;;;;;;5.28;1.83;;;;;;;18.53;43.93;101146.13;5027038;27;99891;-74
2023/05/16 10:21:28;;;;;;;6.40;1.40;;;;;;;18.17;44.73;101148.41;5032105;27;100556;-73
2023/05/16 10:23:57;;;;;;;6.13;2.08;;;;;;;18.35;44.47;101139.25;5023986;27;97361;-74
2023/05/16 10:26:26;;;;;;;5.82;1.77;;;;;;;18.71;44.07;101144.16;5028159;27;96802;-75
2023/05/16 10:28:54;;;;;;;8.88;1.98;;;;;;;19.04;43.57;101141.13;5025697;27;97867;-74
2023/05/16 10:31:21;;;;;;;14.15;1.77;;;;;;;19.96;41.38;101135.94;5023369;27;98509;-74
2023/05/16 10:33:49;;;;;;;8.80;1.90;;;;;;;20.22;40.23;101132.31;5022606;27;96815;-75
2023/05/16 10:36:17;;;;;;;7.63;2.45;;;;;;;19.97;40.36;101141.19;5024755;27;98321;-75
2023/05/16 10:38:45;;;;;;;12.18;2.20;;;;;;;19.49;41.46;101145.38;5021032;27;99099;-74
2023/05/16 10:41:13;;;;;;;13.27;2.22;;;;;;;19.21;42.45;101145.41;5021807;27;98799;-74
2023/05/16 10:43:39;;;;;;;5.70;2.25;;;;;;;18.97;42.79;101155.91;5015381;27;97329;-74
2023/05/16 10:46:08;;;;;;;7.97;1.98;;;;;;;18.71;43.75;101161.06;5019490;27;96888;-75
2023/05/16 10:48:36;;;;;;;9.70;2.10;;;;;;;18.74;43.78;101164.53;5019767;27;99220;-74
2023/05/16 10:51:35;;;;;;;11.25;2.55;;;;;;;18.76;43.86;101170.66;5022822;28;99376;-74
2023/05/16 10:54:05;;;;;;;11.68;2.30;;;;;;;18.87;42.60;101177.03;5022735;27;97933;-74
2023/05/16 10:56:33;;;;;;;14.15;2.60;;;;;;;18.79;42.97;101175.78;5022316;27;97125;-73
2023/05/16 10:58:59;;;;;;;14.27;2.88;;;;;;;18.47;43.07;101175.09;5016354;27;99072;-72
2023/05/16 11:01:28;;;;;;;15.30;2.13;;;;;;;18.90;42.21;101171.50;5022051;27;99063;-75
2023/05/16 11:04:03;;;;;;;9.10;1.95;;;;;;;19.64;40.55;101159.56;5015903;27;96904;-74
2023/05/16 11:06:32;;;;;;;12.27;2.10;;;;;;;20.32;39.37;101162.91;5022233;27;97342;-74
2023/05/16 11:09:20;;;;;;;8.23;1.67;;;;;;;20.08;38.88;101154.75;5019361;27;98373;-73
2023/05/16 11:11:53;;;;;;;8.57;1.60;;;;;;;20.58;37.72;101163.81;5017949;27;98869;-75
2023/05/16 11:14:22;;;;;;;13.52;2.40;;;;;;;20.39;37.41;101163.38;5021984;27;97501;-74
2023/05/16 11:16:50;;;;;;;7.63;1.65;;;;;;;20.77;37.20;101171.41;5020837;27;96822;-74
2023/05/16 11:19:29;;;;;;;9.82;2.20;;;;;;;20.87;36.81;101173.31;5022266;27;99308;-74